Time;durP1;ratioP1;P1;durP2;ratioP2;P2;SDS_P1;SDS_P2;PMS_P1;PMS_P2;Temp;Humidity;BMP_temperature;BMP_pressure;BME280_temperature;BME280_humidity;BME280_pressure;Samples;Min_cycle;Max_cycle;Signal;HPM_P1;HPM_P2
2022/11/07 00:00:37;;;;;;;97.03;40.03;;;;;;;;;;2115582;28;20035;-44
2022/11/07 00:01:38;;;;;;;93.15;39.80;;;;;;;;;;2115390;28;20039;-45
2022/11/07 00:02:41;;;;;;;91.27;38.37;;;;;;;;;;2115243;28;20070;-44
2022/11/07 00:03:42;;;;;;;94.07;41.33;;;;;;;;;;2115521;28;20756;-44
2022/11/07 00:04:43;;;;;;;86.10;37.37;;;;;;;;;;2115575;28;20044;-41
2022/11/07 00:05:44;;;;;;;95.75;40.78;;;;;;;;;;2115364;28;20283;-41
2022/11/07 00:06:45;;;;;;;84.82;36.65;;;;;;;;;;2115196;28;20396;-41
2022/11/07 00:07:46;;;;;;;92.38;38.30;;;;;;;;;;2115423;28;20047;-41
2022/11/07 00:08:48;;;;;;;85.60;38.33;;;;;;;;;;2115432;28;20543;-41
2022/11/07 00:09:49;;;;;;;104.82;42.50;;;;;;;;;;2115185;28;20040;-40
2022/11/07 00:10:52;;;;;;;95.30;37.65;;;;;;;;;;2115377;28;20040;-41
2022/11/07 00:11:54;;;;;;;90.55;38.72;;;;;;;;;;2115177;28;20503;-41
2022/11/07 00:12:55;;;;;;;97.70;41.72;;;;;;;;;;2115555;28;20047;-41
2022/11/07 00:13:56;;;;;;;100.03;41.00;;;;;;;;;;2115214;28;20192;-40
2022/11/07 00:14:57;;;;;;;96.40;40.50;;;;;;;;;;2115382;28;20047;-41
2022/11/07 00:15:58;;;;;;;95.00;39.00;;;;;;;;;;2115333;28;20385;-40
2022/11/07 00:16:59;;;;;;;93.13;41.03;;;;;;;;;;2115239;28;20097;-41
2022/11/07 00:18:01;;;;;;;89.07;38.87;;;;;;;;;;2115266;28;20075;-40
2022/11/07 00:19:02;;;;;;;94.78;40.15;;;;;;;;;;2115372;28;20048;-41
2022/11/07 00:20:03;;;;;;;96.45;39.17;;;;;;;;;;2115182;28;20404;-40
2022/11/07 00:21:05;;;;;;;94.20;38.80;;;;;;;;;;2115183;28;20048;-40
2022/11/07 00:22:06;;;;;;;90.18;40.55;;;;;;;;;;2115182;28;20060;-41
2022/11/07 00:23:07;;;;;;;97.25;40.15;;;;;;;;;;2115157;28;20047;-41
2022/11/07 00:24:09;;;;;;;92.43;36.07;;;;;;;;;;2115330;28;20108;-40
2022/11/07 00:25:09;;;;;;;92.93;39.78;;;;;;;;;;2115131;28;20435;-41
2022/11/07 00:26:12;;;;;;;89.17;39.87;;;;;;;;;;2115287;28;20077;-41
2022/11/07 00:27:12;;;;;;;;;;;;;;;;;;2115588;28;20055;-41
2022/11/07 00:28:13;;;;;;;92.25;33.85;;;;;;;;;;2115095;28;20284;-41
2022/11/07 00:29:15;;;;;;;96.20;41.58;;;;;;;;;;2115001;28;20415;-41
2022/11/07 00:30:16;;;;;;;93.28;39.40;;;;;;;;;;2115269;28;20048;-41
2022/11/07 00:31:18;;;;;;;97.70;40.90;;;;;;;;;;2115073;28;20446;-41
2022/11/07 00:32:20;;;;;;;102.05;41.35;;;;;;;;;;2114971;28;20043;-41
2022/11/07 00:33:22;;;;;;;96.82;38.78;;;;;;;;;;2115180;28;20047;-41
2022/11/07 00:34:23;;;;;;;89.45;39.17;;;;;;;;;;2115088;28;20051;-41
2022/11/07 00:35:24;;;;;;;98.82;41.40;;;;;;;;;;2115079;28;20056;-41
2022/11/07 00:36:26;;;;;;;84.67;36.83;;;;;;;;;;2115373;28;20487;-42
2022/11/07 00:37:27;;;;;;;;;;;;;;;;;;2115632;28;20048;-42
2022/11/07 00:38:28;;;;;;;93.38;38.63;;;;;;;;;;2115099;28;19920;-41
2022/11/07 00:39:29;;;;;;;92.15;40.55;;;;;;;;;;2115206;28;20442;-41
2022/11/07 00:40:30;;;;;;;97.85;40.58;;;;;;;;;;2115091;28;20059;-42
2022/11/07 00:41:31;;;;;;;81.10;37.58;;;;;;;;;;2115139;28;20048;-42
2022/11/07 00:42:32;;;;;;;95.07;40.97;;;;;;;;;;2115165;28;20047;-42
2022/11/07 00:43:33;;;;;;;95.38;38.58;;;;;;;;;;2115049;28;20047;-42
2022/11/07 00:44:35;;;;;;;94.05;40.28;;;;;;;;;;2115133;28;20096;-42
2022/11/07 00:45:36;;;;;;;99.85;40.25;;;;;;;;;;2115020;28;20044;-42
2022/11/07 00:46:37;;;;;;;95.03;39.60;;;;;;;;;;2115155;28;20101;-42
2022/11/07 00:47:38;;;;;;;107.07;41.67;;;;;;;;;;2115126;28;20058;-42
2022/11/07 00:48:39;;;;;;;93.65;41.47;;;;;;;;;;2114734;28;20043;-42
2022/11/07 00:49:41;;;;;;;97.78;40.45;;;;;;;;;;2115047;28;20044;-42
2022/11/07 00:50:42;;;;;;;87.80;39.92;;;;;;;;;;2115148;28;20048;-41
2022/11/07 00:51:43;;;;;;;83.23;31.07;;;;;;;;;;2114997;28;20047;-41
2022/11/07 00:52:44;;;;;;;99.72;40.85;;;;;;;;;;2114868;28;20653;-41
2022/11/07 00:53:45;;;;;;;97.55;41.22;;;;;;;;;;2115236;28;20047;-41
2022/11/07 00:54:46;;;;;;;88.13;37.97;;;;;;;;;;2114922;28;20036;-41
2022/11/07 00:55:47;;;;;;;96.70;41.05;;;;;;;;;;2115078;28;20047;-41
2022/11/07 00:56:48;;;;;;;84.13;32.60;;;;;;;;;;2114997;28;20048;-41
2022/11/07 00:57:49;;;;;;;94.20;40.92;;;;;;;;;;2116244;28;20437;-41
2022/11/07 00:58:53;;;;;;;100.10;42.35;;;;;;;;;;2123620;28;20043;-45
2022/11/07 00:59:54;;;;;;;95.68;41.45;;;;;;;;;;2123405;28;20058;-44
2022/11/07 01:00:55;;;;;;;102.05;42.17;;;;;;;;;;2123322;28;20043;-44
2022/11/07 01:01:56;;;;;;;95.90;40.38;;;;;;;;;;2123373;28;20093;-44
2022/11/07 01:05:37;;;;;;;99.72;41.42;;;;;;;;;;2123342;28;20092;-45
2022/11/07 01:06:39;;;;;;;97.67;41.63;;;;;;;;;;2123416;28;20039;-46
2022/11/07 01:07:40;;;;;;;95.45;41.17;;;;;;;;;;2114606;28;20291;-46
2022/11/07 01:08:41;;;;;;;92.53;41.03;;;;;;;;;;2115015;28;20368;-45
2022/11/07 01:09:42;;;;;;;89.03;40.38;;;;;;;;;;2114959;28;20043;-45
2022/11/07 01:10:43;;;;;;;87.60;38.97;;;;;;;;;;2115034;28;20051;-44
2022/11/07 01:11:45;;;;;;;93.13;41.23;;;;;;;;;;2114986;28;20505;-45
2022/11/07 01:12:46;;;;;;;99.40;40.28;;;;;;;;;;2114974;28;20043;-41
2022/11/07 01:13:47;;;;;;;98.82;41.03;;;;;;;;;;2114959;28;20043;-41
2022/11/07 01:14:48;;;;;;;105.63;41.97;;;;;;;;;;2114815;28;20048;-41
2022/11/07 01:15:49;;;;;;;96.83;41.53;;;;;;;;;;2114985;28;20092;-41
2022/11/07 01:16:50;;;;;;;89.15;39.80;;;;;;;;;;2115082;28;20043;-45
2022/11/07 01:17:52;;;;;;;96.07;41.17;;;;;;;;;;2114697;28;20503;-45
2022/11/07 01:18:52;;;;;;;104.65;40.80;;;;;;;;;;2114887;28;20044;-45
2022/11/07 01:19:54;;;;;;;92.63;40.67;;;;;;;;;;2114846;28;20501;-45
2022/11/07 01:20:55;;;;;;;98.60;40.83;;;;;;;;;;2115085;28;20067;-45
2022/11/07 01:21:56;;;;;;;107.35;42.08;;;;;;;;;;2114837;28;20427;-46
2022/11/07 01:22:57;;;;;;;95.63;40.67;;;;;;;;;;2114877;28;20047;-45
2022/11/07 01:24:00;;;;;;;103.13;42.27;;;;;;;;;;2114801;28;20044;-46
2022/11/07 01:25:01;;;;;;;94.32;40.10;;;;;;;;;;2114855;28;20043;-45
2022/11/07 01:26:03;;;;;;;95.77;39.63;;;;;;;;;;2115002;28;20043;-46
2022/11/07 01:27:04;;;;;;;90.78;40.75;;;;;;;;;;2114739;28;20399;-45
2022/11/07 01:28:05;;;;;;;89.80;40.13;;;;;;;;;;2114751;28;20146;-45
2022/11/07 01:29:06;;;;;;;91.60;39.72;;;;;;;;;;2114857;28;20054;-46
2022/11/07 01:30:08;;;;;;;103.97;40.60;;;;;;;;;;2114687;28;20052;-46
2022/11/07 01:31:10;;;;;;;95.30;39.90;;;;;;;;;;2114762;28;20050;-45
2022/11/07 01:32:11;;;;;;;96.22;40.88;;;;;;;;;;2114692;28;20051;-45
2022/11/07 01:33:12;;;;;;;90.18;39.60;;;;;;;;;;2114699;28;20476;-49
2022/11/07 01:34:16;;;;;;;90.03;39.28;;;;;;;;;;2114760;28;20043;-47
2022/11/07 01:35:17;;;;;;;89.68;39.15;;;;;;;;;;2114682;28;20043;-45
2022/11/07 01:36:19;;;;;;;92.10;39.58;;;;;;;;;;2114597;28;20531;-46
2022/11/07 01:37:20;;;;;;;96.13;41.08;;;;;;;;;;2114578;28;20052;-46
2022/11/07 01:38:21;;;;;;;91.67;39.57;;;;;;;;;;2114693;28;20056;-45
2022/11/07 01:39:22;;;;;;;87.10;39.05;;;;;;;;;;2114917;28;20055;-42
2022/11/07 01:40:23;;;;;;;94.88;38.75;;;;;;;;;;2114690;28;20504;-42
2022/11/07 01:41:26;;;;;;;93.10;40.15;;;;;;;;;;2114649;28;20059;-43
2022/11/07 01:42:27;;;;;;;102.78;40.72;;;;;;;;;;2114705;28;20048;-42
2022/11/07 01:43:43;;;;;;;90.73;41.00;;;;;;;;;;2114750;28;20525;-42
2022/11/07 01:44:55;;;;;;;89.95;40.20;;;;;;;;;;2110397;28;20298;-42
2022/11/07 01:45:56;;;;;;;92.10;40.63;;;;;;;;;;2114572;28;20480;-42
2022/11/07 01:46:59;;;;;;;83.32;39.17;;;;;;;;;;2114713;28;20044;-44
2022/11/07 01:48:01;;;;;;;91.28;39.72;;;;;;;;;;2114639;28;20044;-42
2022/11/07 01:49:04;;;;;;;80.75;38.35;;;;;;;;;;2114696;28;20044;-43
2022/11/07 01:50:06;;;;;;;100.68;39.97;;;;;;;;;;2114640;28;20051;-42
2022/11/07 01:51:08;;;;;;;86.93;39.53;;;;;;;;;;2114781;28;20184;-42
2022/11/07 01:52:08;;;;;;;;;;;;;;;;;;2115098;28;20047;-42
2022/11/07 01:53:10;;;;;;;84.30;38.17;;;;;;;;;;2114527;28;20043;-42
2022/11/07 01:54:12;;;;;;;89.32;39.13;;;;;;;;;;2114819;28;20054;-47
2022/11/07 01:55:15;;;;;;;93.85;39.75;;;;;;;;;;2114677;28;20104;-50
2022/11/07 01:56:17;;;;;;;88.60;40.65;;;;;;;;;;2114687;28;20097;-46
2022/11/07 01:57:21;;;;;;;89.22;39.58;;;;;;;;;;2114453;28;20054;-45
2022/11/07 01:58:22;;;;;;;83.10;38.75;;;;;;;;;;2114662;28;20047;-46
2022/11/07 01:59:24;;;;;;;81.50;38.93;;;;;;;;;;2114526;28;20086;-47
2022/11/07 02:00:26;;;;;;;83.32;37.13;;;;;;;;;;2114478;28;20416;-45
2022/11/07 02:01:27;;;;;;;90.60;39.17;;;;;;;;;;2114589;28;20052;-46
2022/11/07 02:02:28;;;;;;;82.70;37.88;;;;;;;;;;2114614;28;20075;-43
2022/11/07 02:03:30;;;;;;;81.93;36.55;;;;;;;;;;2114742;28;20044;-47
2022/11/07 02:04:31;;;;;;;79.30;37.03;;;;;;;;;;2114436;28;20556;-47
2022/11/07 02:05:34;;;;;;;88.40;39.22;;;;;;;;;;2114511;28;20221;-47
2022/11/07 02:06:42;;;;;;;84.80;37.95;;;;;;;;;;2113874;28;20127;-49
2022/11/07 02:07:43;;;;;;;86.68;39.70;;;;;;;;;;2114554;28;20419;-42
2022/11/07 02:08:45;;;;;;;89.97;38.58;;;;;;;;;;2114478;28;20039;-42
2022/11/07 02:09:47;;;;;;;82.90;36.67;;;;;;;;;;2114609;28;20047;-42
2022/11/07 02:10:48;;;;;;;83.43;37.30;;;;;;;;;;2114595;28;20052;-42
2022/11/07 02:11:49;;;;;;;79.72;37.65;;;;;;;;;;2114403;28;20047;-42
2022/11/07 02:12:50;;;;;;;82.50;38.20;;;;;;;;;;2114549;28;20047;-46
2022/11/07 02:13:52;;;;;;;87.80;40.15;;;;;;;;;;2114474;28;20047;-48
2022/11/07 02:14:53;;;;;;;85.22;38.15;;;;;;;;;;2114428;28;20055;-47
2022/11/07 02:15:54;;;;;;;85.53;39.47;;;;;;;;;;2114371;28;20480;-49
2022/11/07 02:16:55;;;;;;;84.93;39.20;;;;;;;;;;2114484;28;20092;-48
2022/11/07 02:17:57;;;;;;;83.78;37.60;;;;;;;;;;2114442;28;20055;-48
2022/11/07 02:18:58;;;;;;;;;;;;;;;;;;2114870;28;20386;-47
2022/11/07 02:19:59;;;;;;;83.53;38.72;;;;;;;;;;2114354;28;19926;-46
2022/11/07 02:21:02;;;;;;;79.95;37.38;;;;;;;;;;2114443;28;20403;-47
2022/11/07 02:22:10;;;;;;;83.38;37.25;;;;;;;;;;2114368;28;20052;-49
2022/11/07 02:23:16;;;;;;;86.70;40.28;;;;;;;;;;2114612;28;20055;-47
2022/11/07 02:24:24;;;;;;;84.57;38.13;;;;;;;;;;2114348;28;20145;-47
2022/11/07 02:25:25;;;;;;;86.53;38.40;;;;;;;;;;2114594;28;20059;-46
2022/11/07 02:26:26;;;;;;;73.87;35.97;;;;;;;;;;2114468;28;20079;-48
2022/11/07 02:27:28;;;;;;;85.80;38.75;;;;;;;;;;2114473;28;20050;-46
2022/11/07 02:28:29;;;;;;;78.88;36.67;;;;;;;;;;2114443;28;20488;-42
2022/11/07 02:29:31;;;;;;;82.07;36.80;;;;;;;;;;2114529;28;20044;-42
2022/11/07 02:30:33;;;;;;;84.32;40.05;;;;;;;;;;2114477;28;20066;-42
2022/11/07 02:31:34;;;;;;;81.90;37.80;;;;;;;;;;2114280;28;20043;-42
2022/11/07 02:32:35;;;;;;;84.07;39.27;;;;;;;;;;2114368;28;20083;-43
2022/11/07 02:33:36;;;;;;;80.38;38.45;;;;;;;;;;2114429;28;20369;-42
2022/11/07 02:34:37;;;;;;;69.88;29.30;;;;;;;;;;2114433;28;20057;-42
2022/11/07 02:35:40;;;;;;;80.80;38.10;;;;;;;;;;2114281;28;20552;-42
2022/11/07 02:36:41;;;;;;;78.32;37.50;;;;;;;;;;2114393;28;20047;-42
2022/11/07 02:37:42;;;;;;;82.63;38.05;;;;;;;;;;2114357;28;20058;-42
2022/11/07 02:38:43;;;;;;;80.27;38.23;;;;;;;;;;2114384;28;20046;-42
2022/11/07 02:39:45;;;;;;;79.95;37.22;;;;;;;;;;2114574;28;20101;-42
2022/11/07 02:40:49;;;;;;;89.30;38.40;;;;;;;;;;2114352;28;20054;-42
2022/11/07 02:41:50;;;;;;;79.68;37.75;;;;;;;;;;2114260;28;20507;-42
2022/11/07 02:42:51;;;;;;;75.15;36.50;;;;;;;;;;2114163;28;20043;-42
2022/11/07 02:43:53;;;;;;;84.45;39.35;;;;;;;;;;2114536;28;20446;-49
2022/11/07 02:44:55;;;;;;;78.88;38.38;;;;;;;;;;2114195;28;20492;-46
2022/11/07 02:45:57;;;;;;;80.38;37.88;;;;;;;;;;2114418;28;20043;-47
2022/11/07 02:46:58;;;;;;;82.85;37.58;;;;;;;;;;2114189;28;20096;-46
2022/11/07 02:47:59;;;;;;;77.88;37.22;;;;;;;;;;2114158;28;20479;-47
2022/11/07 02:49:00;;;;;;;85.30;38.75;;;;;;;;;;2114212;28;20054;-47
2022/11/07 02:50:01;;;;;;;79.65;37.88;;;;;;;;;;2114381;28;20092;-46
2022/11/07 02:51:02;;;;;;;75.47;36.60;;;;;;;;;;2114203;28;20104;-46
2022/11/07 02:52:03;;;;;;;77.60;36.25;;;;;;;;;;2114533;28;20040;-42
2022/11/07 02:53:04;;;;;;;72.03;35.40;;;;;;;;;;2114452;28;20476;-42
2022/11/07 02:54:05;;;;;;;82.93;38.65;;;;;;;;;;2114396;28;20058;-42
2022/11/07 02:55:08;;;;;;;75.80;36.88;;;;;;;;;;2114231;28;20054;-42
2022/11/07 02:56:09;;;;;;;76.32;37.38;;;;;;;;;;2114031;28;20451;-42
2022/11/07 02:57:10;;;;;;;79.18;36.97;;;;;;;;;;2114167;28;20051;-42
2022/11/07 02:58:11;;;;;;;81.15;37.25;;;;;;;;;;2114191;28;20044;-42
2022/11/07 02:59:12;;;;;;;80.85;37.60;;;;;;;;;;2114190;28;20159;-42
2022/11/07 03:00:14;;;;;;;73.50;35.80;;;;;;;;;;2114340;28;20150;-42
2022/11/07 03:01:15;;;;;;;83.90;38.78;;;;;;;;;;2114115;28;20085;-42
2022/11/07 03:02:16;;;;;;;75.40;36.88;;;;;;;;;;2114146;28;20083;-42
2022/11/07 03:03:17;;;;;;;81.93;36.72;;;;;;;;;;2114159;28;20460;-42
2022/11/07 03:04:19;;;;;;;80.25;37.85;;;;;;;;;;2114507;28;20051;-42
2022/11/07 03:05:19;;;;;;;81.90;37.13;;;;;;;;;;2114213;28;20039;-42
2022/11/07 03:06:22;;;;;;;71.00;35.15;;;;;;;;;;2114236;28;20044;-42
2022/11/07 03:07:23;;;;;;;80.35;38.00;;;;;;;;;;2113844;28;20046;-43
2022/11/07 03:08:24;;;;;;;70.97;34.87;;;;;;;;;;2114076;28;20050;-42
2022/11/07 03:09:25;;;;;;;74.88;36.90;;;;;;;;;;2114141;28;20048;-42
2022/11/07 03:10:27;;;;;;;71.75;36.35;;;;;;;;;;2114101;28;20044;-42
2022/11/07 03:11:28;;;;;;;77.72;36.33;;;;;;;;;;2114245;28;20048;-42
2022/11/07 03:12:29;;;;;;;74.18;36.60;;;;;;;;;;2114146;28;20047;-42
2022/11/07 03:13:30;;;;;;;71.60;36.23;;;;;;;;;;2114216;28;20055;-43
2022/11/07 03:14:31;;;;;;;73.15;35.40;;;;;;;;;;2114096;28;20699;-42
2022/11/07 03:15:32;;;;;;;74.83;36.53;;;;;;;;;;2114289;28;20048;-42
2022/11/07 03:16:33;;;;;;;75.60;36.33;;;;;;;;;;2114078;28;20051;-42
2022/11/07 03:17:34;;;;;;;75.13;35.90;;;;;;;;;;2114090;28;20419;-43
2022/11/07 03:18:35;;;;;;;76.60;37.50;;;;;;;;;;2114191;28;20055;-42
2022/11/07 03:19:36;;;;;;;71.60;35.83;;;;;;;;;;2115597;28;20548;-42
2022/11/07 03:20:37;;;;;;;66.07;34.63;;;;;;;;;;2115596;28;20048;-43
2022/11/07 03:21:38;;;;;;;70.65;34.83;;;;;;;;;;2115611;28;20404;-43
2022/11/07 03:22:39;;;;;;;76.18;37.17;;;;;;;;;;2115531;28;20055;-42
2022/11/07 03:23:41;;;;;;;70.95;37.67;;;;;;;;;;2115686;28;20516;-42
2022/11/07 03:24:41;;;;;;;75.78;37.05;;;;;;;;;;2115667;28;20047;-42
2022/11/07 03:25:43;;;;;;;76.97;36.97;;;;;;;;;;2115565;28;20050;-42
2022/11/07 03:26:44;;;;;;;64.13;34.08;;;;;;;;;;2115869;28;20040;-42
2022/11/07 03:27:46;;;;;;;65.10;34.42;;;;;;;;;;2115656;28;20082;-42
2022/11/07 03:28:47;;;;;;;73.07;35.67;;;;;;;;;;2115459;28;20404;-42
2022/11/07 03:29:48;;;;;;;73.10;35.40;;;;;;;;;;2115749;28;20047;-48
2022/11/07 03:30:49;;;;;;;71.70;34.53;;;;;;;;;;2115666;28;20043;-46
2022/11/07 03:31:50;;;;;;;68.67;34.73;;;;;;;;;;2115441;28;20039;-46
2022/11/07 03:32:51;;;;;;;71.38;34.60;;;;;;;;;;2115400;28;20117;-49
2022/11/07 03:33:52;;;;;;;72.47;35.78;;;;;;;;;;2115451;28;20503;-46
2022/11/07 03:34:53;;;;;;;63.72;33.20;;;;;;;;;;2115657;28;20040;-46
2022/11/07 03:35:55;;;;;;;72.13;35.92;;;;;;;;;;2115611;28;20400;-49
2022/11/07 03:36:56;;;;;;;72.00;34.85;;;;;;;;;;2115138;28;20069;-45
2022/11/07 03:37:57;;;;;;;67.80;35.95;;;;;;;;;;2115525;28;20092;-45
2022/11/07 03:38:58;;;;;;;72.40;36.08;;;;;;;;;;2115511;28;20044;-46
2022/11/07 03:39:59;;;;;;;72.03;35.90;;;;;;;;;;2115787;28;20456;-42
2022/11/07 03:41:00;;;;;;;70.93;34.97;;;;;;;;;;2115537;28;20052;-42
2022/11/07 03:42:01;;;;;;;71.80;34.97;;;;;;;;;;2115306;28;20093;-43
2022/11/07 03:43:02;;;;;;;64.25;34.83;;;;;;;;;;2115501;28;20043;-42
2022/11/07 03:44:04;;;;;;;80.45;34.75;;;;;;;;;;2115627;28;20052;-43
2022/11/07 03:45:06;;;;;;;67.55;33.80;;;;;;;;;;2115480;28;20058;-42
2022/11/07 03:46:07;;;;;;;69.20;34.17;;;;;;;;;;2115511;28;20047;-42
2022/11/07 03:47:08;;;;;;;68.85;35.70;;;;;;;;;;2115475;28;20048;-42
2022/11/07 03:48:09;;;;;;;72.88;36.28;;;;;;;;;;2115291;28;20043;-42
2022/11/07 03:49:10;;;;;;;70.50;35.45;;;;;;;;;;2115501;28;20120;-42
2022/11/07 03:50:12;;;;;;;68.70;34.10;;;;;;;;;;2115405;28;20400;-43
2022/11/07 03:51:13;;;;;;;67.57;35.45;;;;;;;;;;2115541;28;20043;-42
2022/11/07 03:52:14;;;;;;;69.87;33.73;;;;;;;;;;2115350;28;20199;-43
2022/11/07 03:53:15;;;;;;;71.53;36.08;;;;;;;;;;2115328;28;20048;-43
2022/11/07 03:54:24;;;;;;;67.30;33.63;;;;;;;;;;2115385;28;20103;-42
2022/11/07 03:55:25;;;;;;;67.38;34.58;;;;;;;;;;2115493;28;20074;-42
2022/11/07 03:56:27;;;;;;;66.75;34.08;;;;;;;;;;2115257;28;20050;-43
2022/11/07 03:57:28;;;;;;;65.55;33.78;;;;;;;;;;2115412;28;20055;-43
2022/11/07 03:58:29;;;;;;;63.60;32.35;;;;;;;;;;2115432;28;20039;-43
2022/11/07 03:59:30;;;;;;;63.37;32.50;;;;;;;;;;2115494;28;20067;-42
2022/11/07 04:00:31;;;;;;;64.80;33.10;;;;;;;;;;2115415;28;20476;-42
2022/11/07 04:01:32;;;;;;;59.72;31.13;;;;;;;;;;2115250;28;20047;-42
2022/11/07 04:02:33;;;;;;;65.65;34.25;;;;;;;;;;2115412;28;20051;-43
2022/11/07 04:03:34;;;;;;;67.68;34.00;;;;;;;;;;2115302;28;20412;-43
2022/11/07 04:04:36;;;;;;;60.75;33.55;;;;;;;;;;2115371;28;20051;-42
2022/11/07 04:05:36;;;;;;;68.50;33.72;;;;;;;;;;2115163;28;20071;-43
2022/11/07 04:06:38;;;;;;;69.80;34.20;;;;;;;;;;2115321;28;20290;-42
2022/11/07 04:07:39;;;;;;;63.38;32.78;;;;;;;;;;2115004;28;20047;-43
2022/11/07 04:08:40;;;;;;;71.13;35.57;;;;;;;;;;2115318;28;20273;-43
2022/11/07 04:09:41;;;;;;;67.55;34.28;;;;;;;;;;2115292;28;20481;-43
2022/11/07 04:10:42;;;;;;;64.15;33.22;;;;;;;;;;2115282;28;20043;-42
2022/11/07 04:17:20;;;;;;;66.68;34.90;;;;;;;;;;2115453;28;20043;-47
2022/11/07 04:18:21;;;;;;;61.15;33.67;;;;;;;;;;2115307;28;20396;-46
2022/11/07 04:19:25;;;;;;;60.00;32.25;;;;;;;;;;2115284;28;20044;-46
2022/11/07 04:20:26;;;;;;;67.55;34.22;;;;;;;;;;2115142;28;20100;-48
2022/11/07 04:21:27;;;;;;;64.63;34.20;;;;;;;;;;2115153;28;20403;-46
2022/11/07 04:22:28;;;;;;;60.97;32.27;;;;;;;;;;2115227;28;20058;-49
2022/11/07 04:23:29;;;;;;;59.92;32.85;;;;;;;;;;2115211;28;20054;-47
2022/11/07 04:24:30;;;;;;;67.57;34.67;;;;;;;;;;2115328;28;20052;-48
2022/11/07 04:28:10;;;;;;;63.05;33.15;;;;;;;;;;2115347;28;20043;-46
2022/11/07 04:29:11;;;;;;;58.17;30.88;;;;;;;;;;2115285;28;20078;-45
2022/11/07 04:30:21;;;;;;;72.97;34.33;;;;;;;;;;2114726;28;20484;-46
2022/11/07 04:31:22;;;;;;;65.78;33.17;;;;;;;;;;2115243;28;20108;-46
2022/11/07 04:32:23;;;;;;;56.40;32.60;;;;;;;;;;2114973;28;20054;-46
2022/11/07 04:33:24;;;;;;;61.40;32.67;;;;;;;;;;2115038;28;20043;-46
2022/11/07 04:34:25;;;;;;;63.78;33.65;;;;;;;;;;2115231;28;20051;-50
2022/11/07 04:35:27;;;;;;;60.08;33.65;;;;;;;;;;2115044;28;20480;-43
2022/11/07 04:36:28;;;;;;;;;;;;;;;;;;2115551;28;20407;-42
2022/11/07 04:37:29;;;;;;;55.28;29.95;;;;;;;;;;2115347;28;19975;-45
2022/11/07 04:38:30;;;;;;;62.00;32.80;;;;;;;;;;2115077;28;20511;-48
2022/11/07 04:39:31;;;;;;;59.38;31.83;;;;;;;;;;2115194;28;20075;-46
2022/11/07 04:40:32;;;;;;;59.97;31.35;;;;;;;;;;2115083;28;20051;-47
2022/11/07 04:41:33;;;;;;;64.67;32.17;;;;;;;;;;2115117;28;20047;-47
2022/11/07 04:42:35;;;;;;;57.38;31.05;;;;;;;;;;2115324;28;20054;-43
2022/11/07 04:43:36;;;;;;;58.53;31.52;;;;;;;;;;2115094;28;20048;-42
2022/11/07 04:44:37;;;;;;;63.05;31.98;;;;;;;;;;2114982;28;20050;-43
2022/11/07 04:45:38;;;;;;;63.33;33.97;;;;;;;;;;2115183;28;20050;-42
2022/11/07 04:46:39;;;;;;;61.95;33.17;;;;;;;;;;2115033;28;20043;-42
2022/11/07 04:47:40;;;;;;;56.83;33.85;;;;;;;;;;2115077;28;20469;-43
2022/11/07 04:48:41;;;;;;;55.88;30.80;;;;;;;;;;2114843;28;20400;-43
2022/11/07 04:49:42;;;;;;;58.03;30.80;;;;;;;;;;2115227;28;20043;-42
2022/11/07 04:50:44;;;;;;;59.47;32.20;;;;;;;;;;2115078;28;20052;-43
2022/11/07 04:51:45;;;;;;;60.17;32.15;;;;;;;;;;2115118;28;20046;-43
2022/11/07 04:52:46;;;;;;;59.05;30.95;;;;;;;;;;2115092;28;20396;-47
2022/11/07 04:53:47;;;;;;;61.03;32.65;;;;;;;;;;2115073;28;20052;-46
2022/11/07 04:54:48;;;;;;;52.75;30.02;;;;;;;;;;2115209;28;20454;-46
2022/11/07 04:55:49;;;;;;;58.53;32.08;;;;;;;;;;2115116;28;20039;-47
2022/11/07 04:56:50;;;;;;;56.50;30.65;;;;;;;;;;2115038;28;20071;-46
2022/11/07 04:57:52;;;;;;;56.25;30.83;;;;;;;;;;2114894;28;20043;-46
2022/11/07 04:58:53;;;;;;;54.15;29.85;;;;;;;;;;2115126;28;20270;-47
2022/11/07 04:59:54;;;;;;;54.95;31.23;;;;;;;;;;2115128;28;20043;-47
2022/11/07 05:00:55;;;;;;;56.92;31.15;;;;;;;;;;2115094;28;20074;-47
2022/11/07 05:01:56;;;;;;;57.97;31.05;;;;;;;;;;2114878;28;20043;-49
2022/11/07 05:02:58;;;;;;;55.72;29.27;;;;;;;;;;2115108;28;20071;-45
2022/11/07 05:03:59;;;;;;;52.47;28.75;;;;;;;;;;2114994;28;20058;-46
2022/11/07 05:05:00;;;;;;;49.95;28.75;;;;;;;;;;2115049;28;20122;-46
2022/11/07 05:06:03;;;;;;;56.03;31.25;;;;;;;;;;2114985;28;20055;-46
2022/11/07 05:07:04;;;;;;;50.25;28.40;;;;;;;;;;2114642;28;20553;-48
2022/11/07 05:08:05;;;;;;;56.67;31.08;;;;;;;;;;2114896;28;20056;-46
2022/11/07 05:09:08;;;;;;;56.80;29.65;;;;;;;;;;2114986;28;20063;-43
2022/11/07 05:10:15;;;;;;;53.78;29.35;;;;;;;;;;2114944;28;20062;-42
2022/11/07 05:11:16;;;;;;;54.03;29.50;;;;;;;;;;2114896;28;20063;-42
2022/11/07 05:12:17;;;;;;;53.50;29.23;;;;;;;;;;2114864;28;20451;-43
2022/11/07 05:13:18;;;;;;;53.28;29.80;;;;;;;;;;2114896;28;20047;-43
2022/11/07 05:14:20;;;;;;;53.10;28.85;;;;;;;;;;2115176;28;20043;-43
2022/11/07 05:15:21;;;;;;;58.35;30.00;;;;;;;;;;2115066;28;20047;-46
2022/11/07 05:16:22;;;;;;;50.17;28.38;;;;;;;;;;2114836;28;20446;-46
2022/11/07 05:17:23;;;;;;;52.05;30.27;;;;;;;;;;2114946;28;20370;-46
2022/11/07 05:18:28;;;;;;;49.10;28.08;;;;;;;;;;2115032;28;20052;-47
2022/11/07 05:19:29;;;;;;;51.45;29.38;;;;;;;;;;2114951;28;20048;-46
2022/11/07 05:20:31;;;;;;;52.37;28.57;;;;;;;;;;2114849;28;20134;-46
2022/11/07 05:21:32;;;;;;;50.78;29.13;;;;;;;;;;2114752;28;20411;-46
2022/11/07 05:23:57;;;;;;;49.28;28.23;;;;;;;;;;2114944;28;20055;-46
2022/11/07 05:24:58;;;;;;;53.60;29.10;;;;;;;;;;2115897;28;20040;-45
2022/11/07 05:25:59;;;;;;;47.43;28.13;;;;;;;;;;2123319;28;20058;-45
2022/11/07 05:27:00;;;;;;;49.97;27.52;;;;;;;;;;2123109;28;20043;-44
2022/11/07 05:28:01;;;;;;;51.45;28.65;;;;;;;;;;2123222;28;20137;-42
2022/11/07 05:29:03;;;;;;;49.33;28.33;;;;;;;;;;2122835;28;20134;-43
2022/11/07 05:30:04;;;;;;;45.92;26.13;;;;;;;;;;2114947;28;20494;-45
2022/11/07 05:31:06;;;;;;;51.30;29.33;;;;;;;;;;2114203;28;20055;-46
2022/11/07 05:32:06;;;;;;;49.17;27.25;;;;;;;;;;2114167;28;20051;-43
2022/11/07 05:33:08;;;;;;;50.80;27.97;;;;;;;;;;2114293;28;20476;-45
2022/11/07 05:34:09;;;;;;;50.67;27.83;;;;;;;;;;2114656;28;20484;-45
2022/11/07 05:35:15;;;;;;;48.03;27.73;;;;;;;;;;2114536;28;20416;-43
2022/11/07 05:36:19;;;;;;;51.50;29.83;;;;;;;;;;2114716;28;20055;-46
2022/11/07 05:37:20;;;;;;;47.03;27.65;;;;;;;;;;2114559;28;20054;-42
2022/11/07 05:38:21;;;;;;;49.33;28.00;;;;;;;;;;2114690;28;20051;-42
2022/11/07 05:39:22;;;;;;;49.55;28.38;;;;;;;;;;2114705;28;20051;-45
2022/11/07 05:40:23;;;;;;;51.35;28.58;;;;;;;;;;2114672;28;20043;-45
2022/11/07 05:41:24;;;;;;;47.28;27.30;;;;;;;;;;2113995;28;20071;-42
2022/11/07 05:42:25;;;;;;;46.88;28.55;;;;;;;;;;2114477;28;20059;-43
2022/11/07 05:43:26;;;;;;;54.07;28.77;;;;;;;;;;2114640;28;20095;-43
2022/11/07 05:44:28;;;;;;;54.28;29.77;;;;;;;;;;2114575;28;20491;-43
2022/11/07 05:45:29;;;;;;;48.65;28.50;;;;;;;;;;2114548;28;20476;-43
2022/11/07 05:46:30;;;;;;;48.35;27.80;;;;;;;;;;2114464;28;20047;-43
2022/11/07 05:47:31;;;;;;;46.75;28.25;;;;;;;;;;2114604;28;20102;-46
2022/11/07 05:48:32;;;;;;;48.92;27.25;;;;;;;;;;2118536;28;20050;-46
2022/11/07 05:49:34;;;;;;;50.28;27.40;;;;;;;;;;2123017;28;20048;-45
2022/11/07 05:50:35;;;;;;;49.08;26.30;;;;;;;;;;2123044;28;20055;-46
2022/11/07 05:51:36;;;;;;;47.88;27.88;;;;;;;;;;2122947;28;20054;-45
2022/11/07 05:52:37;;;;;;;46.40;26.55;;;;;;;;;;2123102;28;20070;-43
2022/11/07 05:53:38;;;;;;;45.28;26.38;;;;;;;;;;2122953;28;20488;-45
2022/11/07 05:54:39;;;;;;;48.17;27.65;;;;;;;;;;2123026;28;20047;-46
2022/11/07 05:55:40;;;;;;;43.92;25.85;;;;;;;;;;2123066;28;20123;-46
2022/11/07 05:56:42;;;;;;;46.22;26.70;;;;;;;;;;2123068;28;20047;-45
2022/11/07 05:57:43;;;;;;;;;;;;;;;;;;2123615;28;20092;-43
2022/11/07 05:58:44;;;;;;;42.30;24.85;;;;;;;;;;2122908;28;19976;-43
2022/11/07 05:59:46;;;;;;;47.90;27.20;;;;;;;;;;2123056;28;20190;-46
2022/11/07 06:00:47;;;;;;;42.15;24.77;;;;;;;;;;2122951;28;20395;-45
2022/11/07 06:01:48;;;;;;;43.13;25.35;;;;;;;;;;2122941;28;20043;-43
2022/11/07 06:02:55;;;;;;;42.83;26.23;;;;;;;;;;2122883;28;20491;-43
2022/11/07 06:03:56;;;;;;;40.92;24.15;;;;;;;;;;2122871;28;20492;-42
2022/11/07 06:04:57;;;;;;;44.72;25.30;;;;;;;;;;2122874;28;20455;-42
2022/11/07 06:05:58;;;;;;;45.53;27.13;;;;;;;;;;2122984;28;20051;-45
2022/11/07 06:06:59;;;;;;;41.97;24.58;;;;;;;;;;2119986;28;20173;-43
2022/11/07 06:08:00;;;;;;;38.07;23.73;;;;;;;;;;2118302;28;20622;-43
2022/11/07 06:09:01;;;;;;;38.22;23.80;;;;;;;;;;2122896;28;20380;-43
2022/11/07 06:10:02;;;;;;;45.45;25.73;;;;;;;;;;2123086;28;20050;-46
2022/11/07 06:11:03;;;;;;;42.45;24.38;;;;;;;;;;2122842;28;20444;-46